Comer, Alabama
Current Conditions -  °F | °C
As of 2:58 PM on Monday 24 Nov 2014 (Local Time) from KEUF Reporting Station
Clear Clear  
Wind Chill: 81°   Ceiling: Unl
Heat Index: 81°   Visibility: 10mi
Dew Point: 56°   Wind: 5mph
Humidity: 42%   Direction: NA
Pressure: 29.8"   Gusts: NA
Location:  32.1076°N, 85.5256°W
Report Text: KEUF 242058Z AUTO VRB04KT 10SM CLR 27/13 A2980 RMK AO2 SLP088 T02720133 53002
Loading
Personal Weather Stations






























Interactive Weather Map New forecast layout! Learn more

10-Day Weather Forecast

Advertisements
Track Severe Weather on mobile